createdAt,value
2023-04-20T00:20:22.505Z,7.70
2023-04-20T00:22:51.311Z,7.70
2023-04-20T00:25:21.378Z,7.26
2023-04-20T00:27:49.249Z,7.37
2023-04-20T00:30:18.178Z,7.43
2023-04-20T00:32:46.476Z,7.13
2023-04-20T00:35:14.862Z,7.46
2023-04-20T00:55:57.802Z,8.22
2023-04-20T00:58:26.439Z,8.22
2023-04-20T01:00:54.351Z,7.63
2023-04-20T01:03:23.034Z,7.47
2023-04-20T01:05:51.852Z,7.43
2023-04-20T01:08:26.521Z,7.54
2023-04-20T01:10:56.292Z,7.41
2023-04-20T01:13:24.649Z,7.46
2023-04-20T01:36:16.869Z,7.87
2023-04-20T01:38:46.599Z,7.87
2023-04-20T01:41:14.863Z,7.07
2023-04-20T01:43:42.947Z,7.09
2023-04-20T01:46:13.010Z,7.18
2023-04-20T01:48:40.989Z,7.15
2023-04-20T01:51:09.947Z,7.12
2023-04-20T01:53:38.798Z,6.97
2023-04-20T01:56:19.249Z,6.98
2023-04-20T02:13:46.737Z,7.46
2023-04-20T02:16:16.022Z,7.46
2023-04-20T02:18:46.017Z,6.90
2023-04-20T02:21:14.224Z,6.86
2023-04-20T02:23:42.111Z,6.69
2023-04-20T02:26:10.365Z,6.51
2023-04-20T02:28:41.406Z,6.62
2023-04-20T02:31:09.374Z,6.58
2023-04-20T02:33:38.086Z,6.59
2023-04-20T02:53:47.040Z,7.02
2023-04-20T02:56:16.389Z,7.02
2023-04-20T02:58:44.699Z,6.33
2023-04-20T03:01:13.053Z,6.33
2023-04-20T03:03:42.102Z,6.34
2023-04-20T03:06:10.438Z,6.29
2023-04-20T03:08:38.472Z,6.30
2023-04-20T03:29:08.945Z,6.67
2023-04-20T03:31:37.690Z,6.67
2023-04-20T03:34:05.752Z,5.93
2023-04-20T03:36:33.723Z,5.98
2023-04-20T03:39:01.901Z,5.79
2023-04-20T03:41:31.148Z,6.00
2023-04-20T03:43:59.013Z,5.94
2023-04-20T03:46:27.385Z,5.87
2023-04-20T03:48:55.612Z,5.94
2023-04-20T04:06:44.196Z,6.65
2023-04-20T04:09:12.860Z,6.65
2023-04-20T04:11:41.232Z,6.06
2023-04-20T04:14:09.362Z,6.04
2023-04-20T04:16:38.071Z,5.93
2023-04-20T04:19:06.172Z,6.08
2023-04-20T04:21:34.782Z,6.24
2023-04-20T04:41:46.475Z,8.33
2023-04-20T04:44:16.827Z,8.06
2023-04-20T04:46:45.821Z,7.99
2023-04-20T04:49:14.370Z,8.05
2023-04-20T04:51:42.593Z,8.10
2023-04-20T04:54:10.529Z,8.49
2023-04-20T04:56:38.675Z,9.08
2023-04-20T04:59:06.971Z,10.54
2023-04-20T05:04:32.466Z,13.16
2023-04-20T05:07:00.529Z,13.84
2023-04-20T05:09:33.572Z,12.60
2023-04-20T05:12:02.798Z,11.66
2023-04-20T05:22:18.268Z,10.23
2023-04-20T05:24:46.902Z,10.05
2023-04-20T05:27:14.875Z,9.97
2023-04-20T05:29:42.973Z,9.90
2023-04-20T05:32:11.323Z,9.87
2023-04-20T05:34:39.342Z,9.94
2023-04-20T05:37:07.487Z,10.09
2023-04-20T05:39:36.088Z,10.19
2023-04-20T05:42:04.220Z,9.86
2023-04-20T05:44:34.071Z,10.02
2023-04-20T05:47:06.535Z,10.28
2023-04-20T05:49:35.859Z,10.54
2023-04-20T05:52:04.742Z,10.73
2023-04-20T05:54:42.015Z,10.89
2023-04-20T05:57:44.442Z,10.82
2023-04-20T06:00:16.031Z,11.05
2023-04-20T06:02:44.824Z,11.09
2023-04-20T06:05:13.534Z,11.37
2023-04-20T06:07:41.914Z,11.41
2023-04-20T06:10:10.826Z,11.33
2023-04-20T06:12:40.408Z,11.78
2023-04-20T06:17:58.495Z,13.95
2023-04-20T06:20:28.343Z,13.17
2023-04-20T06:22:57.035Z,12.92
2023-04-20T06:25:25.929Z,12.23
2023-04-20T06:27:55.055Z,11.81
2023-04-20T06:30:24.224Z,11.97
2023-04-20T06:32:52.523Z,12.22
2023-04-20T06:35:21.428Z,12.64
2023-04-20T06:37:49.648Z,12.75
2023-04-20T06:40:17.728Z,12.85
2023-04-20T06:42:46.004Z,12.57
2023-04-20T06:45:13.994Z,12.62
2023-04-20T06:47:42.176Z,13.02
2023-04-20T06:50:11.429Z,13.27
2023-04-20T06:52:40.981Z,13.59
2023-04-20T06:55:10.526Z,13.51
2023-04-20T06:57:39.658Z,13.34
2023-04-20T07:00:10.040Z,12.72
2023-04-20T07:02:49.759Z,13.42
2023-04-20T07:05:19.047Z,13.59
2023-04-20T07:07:50.538Z,13.36
2023-04-20T07:10:19.261Z,13.67
2023-04-20T07:12:48.612Z,13.40
2023-04-20T07:15:16.694Z,13.77
2023-04-20T07:17:44.939Z,13.72
2023-04-20T07:20:13.200Z,13.63
2023-04-20T07:22:41.440Z,13.78
2023-04-20T07:30:38.821Z,14.17
2023-04-20T07:33:08.853Z,14.49
2023-04-20T07:35:37.231Z,14.62
2023-04-20T07:38:05.808Z,14.54
2023-04-20T07:40:34.206Z,15.08
2023-04-20T07:43:02.171Z,14.76
2023-04-20T07:45:30.385Z,15.23
2023-04-20T07:48:01.567Z,15.17
2023-04-20T07:50:29.658Z,14.90
2023-04-20T07:52:57.857Z,18.31
2023-04-20T07:55:26.258Z,18.46
2023-04-20T07:57:54.375Z,21.36
2023-04-20T08:00:23.069Z,20.56
2023-04-20T08:02:51.648Z,22.97
2023-04-20T08:05:20.187Z,25.35
2023-04-20T08:07:48.533Z,21.98
2023-04-20T08:10:17.012Z,24.56
2023-04-20T08:12:45.052Z,21.66
2023-04-20T08:15:14.648Z,25.17
2023-04-20T08:17:43.415Z,22.47
2023-04-20T08:20:11.528Z,24.84
2023-04-20T08:51:51.906Z,22.30
2023-04-20T08:54:21.734Z,22.30
2023-04-20T08:56:51.379Z,21.77
2023-04-20T08:59:19.726Z,20.49
2023-04-20T09:01:48.081Z,23.91
2023-04-20T09:04:23.399Z,22.23
2023-04-20T09:07:00.235Z,22.29
2023-04-20T09:09:28.580Z,21.28
2023-04-20T09:12:03.057Z,20.70
2023-04-20T09:14:42.116Z,24.04
2023-04-20T09:17:14.600Z,21.84
2023-04-20T09:19:52.529Z,22.23
2023-04-20T09:22:32.584Z,20.84
2023-04-20T09:25:12.308Z,23.73
2023-04-20T09:27:41.321Z,21.36
2023-04-20T09:30:11.548Z,23.12
2023-04-20T09:32:40.095Z,23.34
2023-04-20T09:35:09.917Z,20.78
2023-04-20T09:37:48.447Z,20.34
2023-04-20T09:40:19.871Z,19.22
2023-04-20T09:42:50.337Z,18.72
2023-04-20T09:45:19.320Z,18.30
2023-04-20T09:47:50.107Z,18.08
2023-04-20T09:52:49.636Z,17.76
2023-04-20T09:55:18.255Z,17.98
2023-04-20T10:23:50.514Z,18.67
2023-04-20T10:26:19.477Z,18.67
2023-04-20T10:28:47.633Z,18.21
2023-04-20T10:31:17.239Z,18.07
2023-04-20T10:33:54.805Z,18.29
2023-04-20T10:36:29.421Z,17.68
2023-04-20T10:38:59.029Z,17.45
2023-04-20T10:41:27.358Z,18.15
2023-04-20T10:43:56.118Z,18.17
2023-04-20T10:46:26.563Z,18.50
2023-04-20T10:49:01.567Z,18.39
2023-04-20T10:51:31.673Z,17.95
2023-04-20T10:54:08.884Z,18.51
2023-04-20T10:56:40.923Z,18.48
2023-04-20T10:59:15.283Z,18.53
2023-04-20T11:01:45.225Z,18.56
2023-04-20T11:04:18.362Z,18.13
2023-04-20T11:06:51.089Z,17.97
2023-04-20T11:09:26.422Z,18.30
2023-04-20T11:12:02.606Z,18.83
2023-04-20T11:14:35.590Z,18.43
2023-04-20T11:19:36.249Z,19.29
2023-04-20T11:24:34.577Z,18.88
2023-04-20T11:30:05.943Z,18.01
2023-04-20T11:32:36.478Z,17.65
2023-04-20T11:35:09.584Z,17.52
2023-04-20T11:37:51.389Z,17.71
2023-04-20T11:40:19.855Z,17.77
2023-04-20T11:42:48.288Z,17.76
2023-04-20T11:45:16.748Z,18.07
2023-04-20T11:47:46.192Z,18.23
2023-04-20T11:50:15.042Z,18.32
2023-04-20T11:52:43.284Z,18.51
2023-04-20T11:55:11.674Z,18.62
2023-04-20T11:57:40.457Z,17.85
2023-04-20T12:00:09.265Z,18.51
2023-04-20T12:02:41.805Z,18.67
2023-04-20T12:05:11.990Z,19.13
2023-04-20T12:07:44.120Z,19.06
2023-04-20T12:10:25.076Z,19.21
2023-04-20T12:12:53.902Z,19.32
2023-04-20T12:15:32.244Z,19.42
2023-04-20T12:36:15.867Z,19.47
2023-04-20T12:38:44.590Z,19.47
2023-04-20T12:41:15.572Z,18.54
2023-04-20T12:43:43.493Z,18.41
2023-04-20T12:46:11.835Z,18.27
2023-04-20T12:48:40.053Z,18.09
2023-04-20T12:51:08.335Z,17.89
2023-04-20T12:53:36.551Z,17.80
2023-04-20T12:56:05.513Z,17.76
2023-04-20T12:58:33.465Z,17.81
2023-04-20T13:01:01.933Z,17.79
2023-04-20T13:06:14.565Z,17.87
2023-04-20T13:08:42.823Z,17.40
2023-04-20T13:11:20.621Z,17.69
2023-04-20T13:13:57.459Z,17.62
2023-04-20T13:16:26.037Z,17.48
2023-04-20T13:21:21.433Z,17.56
2023-04-20T13:39:13.282Z,17.05
2023-04-20T13:46:47.565Z,18.16
2023-04-20T13:49:17.077Z,18.16
2023-04-20T13:51:45.036Z,17.67
2023-04-20T13:54:12.981Z,17.66
2023-04-20T13:56:41.268Z,17.57
2023-04-20T13:59:09.368Z,17.56
2023-04-20T14:01:37.664Z,17.71
2023-04-20T14:04:06.140Z,17.61
2023-04-20T14:06:34.145Z,17.66
2023-04-20T14:09:02.236Z,17.49
2023-04-20T14:11:31.005Z,17.57
2023-04-20T14:13:59.324Z,17.52
2023-04-20T14:22:06.451Z,17.60
2023-04-20T14:37:25.102Z,18.34
2023-04-20T14:39:54.008Z,18.34
2023-04-20T14:42:22.731Z,17.53
2023-04-20T14:44:51.509Z,17.61
2023-04-20T14:47:21.031Z,17.45
2023-04-20T14:49:49.090Z,17.45
2023-04-20T14:52:17.047Z,17.38
2023-04-20T14:54:45.500Z,17.46
2023-04-20T14:59:55.882Z,17.47
2023-04-20T15:20:10.220Z,18.05
2023-04-20T15:22:38.999Z,18.05
2023-04-20T15:25:07.570Z,17.38
2023-04-20T15:27:38.227Z,17.29
2023-04-20T15:30:07.339Z,17.22
2023-04-20T15:32:42.324Z,17.39
2023-04-20T15:35:10.617Z,17.32
2023-04-20T15:37:38.607Z,17.23
2023-04-20T15:40:07.885Z,17.18
2023-04-20T15:42:36.354Z,17.13
2023-04-20T15:45:05.624Z,17.13
2023-04-20T16:07:54.926Z,17.42
2023-04-20T16:10:23.767Z,17.42
2023-04-20T16:12:51.778Z,16.65
2023-04-20T16:15:20.480Z,16.71
2023-04-20T16:17:48.944Z,16.52
2023-04-20T16:20:17.111Z,16.46
2023-04-20T16:22:45.073Z,16.39
2023-04-20T16:25:22.565Z,16.42
2023-04-20T16:27:51.762Z,16.38
2023-04-20T16:58:35.948Z,16.28
2023-04-20T17:01:04.695Z,16.28
2023-04-20T17:03:32.867Z,15.58
2023-04-20T17:06:07.399Z,15.43
2023-04-20T17:08:39.315Z,15.32
2023-04-20T17:11:07.450Z,15.20
2023-04-20T17:13:35.854Z,14.80
2023-04-20T17:16:04.065Z,14.94
2023-04-20T17:18:34.320Z,14.86
2023-04-20T17:21:03.258Z,14.76
2023-04-20T17:23:33.946Z,14.67
2023-04-20T17:38:38.487Z,14.90
2023-04-20T17:41:07.288Z,14.90
2023-04-20T17:43:37.081Z,14.18
2023-04-20T17:46:05.615Z,14.06
2023-04-20T17:48:34.817Z,13.93
2023-04-20T17:51:02.802Z,13.91
2023-04-20T17:53:30.876Z,13.84
2023-04-20T17:56:06.798Z,13.82
2023-04-20T17:58:35.354Z,13.83
2023-04-20T18:16:13.412Z,14.03
2023-04-20T18:18:42.134Z,14.03
2023-04-20T18:21:12.147Z,13.32
2023-04-20T18:23:41.010Z,13.29
2023-04-20T18:26:17.506Z,13.26
2023-04-20T18:28:47.061Z,13.36
2023-04-20T18:31:15.577Z,13.38
2023-04-20T18:33:43.651Z,13.44
2023-04-20T18:36:11.867Z,13.38
2023-04-20T18:38:41.085Z,13.47
2023-04-20T18:58:59.265Z,13.98
2023-04-20T19:01:28.094Z,13.98
2023-04-20T19:03:56.721Z,13.31
2023-04-20T19:06:24.720Z,13.30
2023-04-20T19:08:53.499Z,13.16
2023-04-20T19:11:21.553Z,13.22
2023-04-20T19:13:49.758Z,13.17
2023-04-20T19:16:18.323Z,13.09
2023-04-20T19:41:42.073Z,13.82
2023-04-20T19:44:12.253Z,13.82
2023-04-20T19:46:41.274Z,13.01
2023-04-20T19:49:09.772Z,13.10
2023-04-20T19:51:38.144Z,13.18
2023-04-20T19:54:06.429Z,13.13
2023-04-20T19:56:34.790Z,13.31
2023-04-20T19:59:03.526Z,13.31
2023-04-20T20:19:18.336Z,14.19
2023-04-20T20:21:47.252Z,14.19
2023-04-20T20:24:16.198Z,13.52
2023-04-20T20:26:44.066Z,13.44
2023-04-20T20:29:12.302Z,13.52
2023-04-20T20:31:40.551Z,13.47
2023-04-20T20:34:09.255Z,13.12
2023-04-20T20:36:37.595Z,13.35
2023-04-20T20:39:09.190Z,13.16
2023-04-20T20:59:34.174Z,13.84
2023-04-20T21:02:03.733Z,13.84
2023-04-20T21:04:31.685Z,13.23
2023-04-20T21:06:59.556Z,13.14
2023-04-20T21:09:27.883Z,13.21
2023-04-20T21:12:00.300Z,13.24
2023-04-20T21:14:28.634Z,13.09
2023-04-20T21:16:56.900Z,13.28
2023-04-20T21:19:24.926Z,13.18
2023-04-20T21:44:57.172Z,13.85
2023-04-20T21:47:25.793Z,13.85
2023-04-20T21:49:53.670Z,13.18
2023-04-20T21:52:21.483Z,13.10
2023-04-20T21:54:49.658Z,13.04
2023-04-20T21:57:17.472Z,12.97
2023-04-20T21:59:45.814Z,12.91
2023-04-20T22:25:55.312Z,12.83
2023-04-20T22:28:23.914Z,12.83
2023-04-20T22:30:51.754Z,12.11
2023-04-20T22:33:19.691Z,11.98
2023-04-20T22:35:47.898Z,12.06
2023-04-20T22:38:16.282Z,11.94
2023-04-20T22:40:44.173Z,11.94
2023-04-20T22:43:12.223Z,11.68
2023-04-20T23:08:01.346Z,12.21
2023-04-20T23:10:29.939Z,12.21
2023-04-20T23:12:58.002Z,11.53
2023-04-20T23:15:26.058Z,11.51
2023-04-20T23:17:57.237Z,11.51
2023-04-20T23:20:25.483Z,11.47
2023-04-20T23:22:53.709Z,11.37
2023-04-20T23:28:16.205Z,11.30
2023-04-20T23:45:29.061Z,11.79
2023-04-20T23:47:57.769Z,11.79
2023-04-20T23:50:25.829Z,11.11
2023-04-20T23:52:53.737Z,11.13
2023-04-20T23:55:22.232Z,11.09
2023-04-20T23:57:52.443Z,10.97
